RUNWAY INFORMATION
Runway Length Width Elevation Displaced
Threshold
Heading | Runway Length Width Elevation Displaced
Threshold
Heading
10 9636 ft 148 ft 779 ft 312 ft 105 | 28 9636 ft 148 ft 754 ft 427 ft 285
12 2552 ft 59 ft 782 ft 210 ft 121 | 30 2552 ft 59 ft 782 ft 328 ft 301

 AIRPORT FREQUENCIES
Type APP Name MILANO APP Frequency 126.75 MHZ
Type ATIS Name ATIS Frequency 112.6 MHZ
Type GND Name ORIO GND Frequency 120.5 MHZ
Type TWR Name ORIO TWR Frequency 126.5 MHZ

 AIRPORT NEAR NAVIGATION AIDS
Type VOR-DME Name Orio Al Serio Frequency 112600 KHZ
Type NDB Name Orio Al Serio Frequency 377 KHZ

 METAR AND TAF INFORMATION
METAR FOR LIME
ADDS - METARS form results

(0600 UTC 15 June 2021)
Data provider http://aviationweather.gov/metar/data/
 
METAR text: LIME 150550Z VRB02KT 9999 BKN050 22/10 Q1020 NOSIG
Conditions at: LIME (BERGAMO/ORIO SER, IT) observed 0550 UTC 15 June 2021
Temperature: 22.0°C (72°F)
Dewpoint: 10.0°C (50°F) [RH = 46%]
Pressure (altimeter): 30.12 inches Hg (1020.0 mb)
Winds: variable direction winds at 2 MPH (2 knots; 1.0 m/s)
Visibility: 6 or more miles (10+ km)
Ceiling: 5000 feet AGL
Clouds: broken clouds at 5000 feet AGL
Weather: no significant weather observed at this time

METAR text: LIME 150520Z 10002KT 9999 BKN065 21/12 Q1020 NOSIG
Conditions at: LIME (BERGAMO/ORIO SER, IT) observed 0520 UTC 15 June 2021
Temperature: 21.0°C (70°F)
Dewpoint: 12.0°C (54°F) [RH = 56%]
Pressure (altimeter): 30.12 inches Hg (1020.0 mb)
Winds: from the E (100 degrees) at 2 MPH (2 knots; 1.0 m/s)
Visibility: 6 or more miles (10+ km)
Ceiling: 6500 feet AGL
Clouds: broken clouds at 6500 feet AGL
Weather: no significant weather observed at this time

Forecast for: LIME (BERGAMO/ORIO SER, IT)
Text: TAF LIME 150500Z 1506/1606 VRB05KT 9999 SCT040
Forecast period: 0600 UTC 15 June 2021 to 0600 UTC 16 June 2021
Forecast type: FROM: standard forecast or significant change
Winds: variable direction winds at 6 MPH (5 knots; 2.6 m/s)
Visibility: 6 or more miles (10+ km)
Ceiling: at least 12,000 feet AGL
Clouds: scattered clouds at 4000 feet AGL
Weather: no significant weather forecast for this period



© 2013 - 2021, FlightSimLog.org - Powered by Virtual Airlines Manager